createdAt,value
2022-08-16T00:01:07.886Z,972.79
2022-08-16T00:06:40.170Z,972.63
2022-08-16T00:12:09.417Z,972.2
2022-08-16T00:17:58.205Z,972.45
2022-08-16T00:23:16.562Z,972.25
2022-08-16T00:28:47.049Z,972.32
2022-08-16T00:34:19.294Z,972.37
2022-08-16T00:39:59.256Z,972.5
2022-08-16T00:45:25.738Z,972.43
2022-08-16T00:50:56.838Z,972.87
2022-08-16T00:57:00.706Z,972.97
2022-08-16T01:02:00.105Z,973.0
2022-08-16T01:07:55.171Z,972.65
2022-08-16T01:13:06.494Z,972.72
2022-08-16T01:18:42.026Z,972.41
2022-08-16T01:24:56.000Z,972.25
2022-08-16T01:30:00.319Z,972.48
2022-08-16T01:35:18.169Z,972.51
2022-08-16T01:40:41.546Z,972.4
2022-08-16T01:46:40.579Z,972.79
2022-08-16T01:51:44.973Z,972.73
2022-08-16T01:57:25.041Z,972.59
2022-08-16T02:02:54.585Z,972.63
2022-08-16T02:08:34.626Z,972.63
2022-08-16T02:13:56.057Z,972.31
2022-08-16T02:20:01.271Z,972.63
2022-08-16T02:25:00.870Z,972.85
2022-08-16T02:30:50.210Z,972.56
2022-08-16T02:36:04.785Z,972.51
2022-08-16T02:41:40.101Z,972.73
2022-08-16T02:47:07.370Z,972.82
2022-08-16T02:52:38.488Z,972.43
2022-08-16T02:58:13.976Z,972.88
2022-08-16T03:04:54.478Z,972.97
2022-08-16T03:09:20.456Z,972.84
2022-08-16T03:14:52.112Z,972.95
2022-08-16T03:20:34.660Z,972.9
2022-08-16T03:25:54.922Z,972.85
2022-08-16T03:31:41.489Z,972.43
2022-08-16T03:36:58.361Z,972.2
2022-08-16T03:42:29.907Z,972.44
2022-08-16T03:48:07.685Z,972.37
2022-08-16T03:53:38.987Z,972.34
2022-08-16T03:59:05.233Z,972.4
2022-08-16T04:04:43.716Z,972.4
2022-08-16T04:10:38.558Z,972.55
2022-08-16T04:15:44.804Z,972.67
2022-08-16T04:21:32.258Z,972.86
2022-08-16T04:26:48.345Z,973.09
2022-08-16T04:32:20.686Z,973.31
2022-08-16T04:37:54.776Z,973.53
2022-08-16T04:43:24.445Z,973.6
2022-08-16T04:48:57.877Z,973.84
2022-08-16T04:54:27.126Z,974.1
2022-08-16T04:59:58.641Z,974.34
2022-08-16T05:06:07.113Z,974.33
2022-08-16T05:11:09.229Z,974.53
2022-08-16T05:16:41.257Z,974.61
2022-08-16T05:22:18.945Z,974.77
2022-08-16T05:27:44.070Z,974.79
2022-08-16T05:33:18.869Z,975.07
2022-08-16T05:38:47.505Z,975.22
2022-08-16T05:44:25.706Z,975.35
2022-08-16T05:49:51.791Z,975.38
2022-08-16T05:55:24.114Z,975.15
2022-08-16T06:00:57.318Z,975.24
2022-08-16T06:06:30.201Z,975.47
2022-08-16T06:12:02.457Z,975.67
2022-08-16T06:17:44.845Z,975.28
2022-08-16T06:23:18.763Z,974.81
2022-08-16T06:28:39.410Z,975.43
2022-08-16T06:35:03.315Z,975.34
2022-08-16T06:39:50.999Z,975.81
2022-08-16T06:45:13.285Z,975.98
2022-08-16T06:50:48.737Z,976.27
2022-08-16T06:56:24.193Z,975.98
2022-08-16T07:01:58.833Z,975.42
2022-08-16T07:07:23.542Z,975.81
2022-08-16T07:13:16.805Z,975.8
2022-08-16T07:18:26.949Z,975.94
2022-08-16T07:24:06.736Z,976.03
2022-08-16T07:29:32.679Z,975.94
2022-08-16T07:35:02.168Z,976.31
2022-08-16T07:41:02.349Z,976.08
2022-08-16T07:46:43.745Z,976.8
2022-08-16T07:51:37.951Z,976.07
2022-08-16T07:57:12.107Z,976.0
2022-08-16T08:02:43.377Z,975.56
2022-08-16T08:08:59.730Z,975.47
2022-08-16T08:13:50.942Z,975.85
2022-08-16T08:19:21.746Z,976.5
2022-08-16T08:24:59.601Z,975.68
2022-08-16T08:31:02.382Z,975.43
2022-08-16T08:36:02.727Z,975.4
2022-08-16T08:41:30.487Z,975.35
2022-08-16T08:47:05.662Z,976.37
2022-08-16T08:52:38.196Z,976.28
2022-08-16T08:58:04.727Z,977.33
2022-08-16T09:03:34.876Z,976.68
2022-08-16T09:09:17.898Z,975.95
2022-08-16T09:14:51.912Z,976.51
2022-08-16T09:20:13.898Z,975.26
2022-08-16T09:25:46.982Z,974.69
2022-08-16T09:31:17.096Z,974.77
2022-08-16T09:36:54.589Z,975.31
2022-08-16T09:42:20.625Z,974.44
2022-08-16T09:47:59.026Z,973.82
2022-08-16T09:53:24.102Z,974.45
2022-08-16T09:59:08.669Z,974.73
2022-08-16T10:04:54.300Z,974.87
2022-08-16T10:10:03.602Z,974.99
2022-08-16T10:15:35.294Z,975.14
2022-08-16T10:21:09.634Z,974.23
2022-08-16T10:27:29.020Z,974.96
2022-08-16T10:32:10.602Z,974.54
2022-08-16T10:37:42.286Z,974.97
2022-08-16T10:43:19.470Z,975.83
2022-08-16T10:48:48.273Z,975.85
2022-08-16T10:54:31.219Z,974.57
2022-08-16T10:59:58.768Z,975.44
2022-08-16T11:05:23.785Z,975.48
2022-08-16T11:11:20.034Z,974.72
2022-08-16T11:17:11.850Z,974.97
2022-08-16T11:22:49.170Z,974.88
2022-08-16T11:27:36.753Z,975.05
2022-08-16T11:33:05.119Z,975.76
2022-08-16T11:38:59.100Z,975.2
2022-08-16T11:44:07.323Z,976.21
2022-08-16T11:49:38.900Z,975.79
2022-08-16T11:55:11.114Z,975.37
2022-08-16T12:00:53.781Z,975.49
2022-08-16T12:06:31.096Z,973.88
2022-08-16T12:11:53.925Z,974.85
2022-08-16T12:17:22.854Z,974.51
2022-08-16T12:22:53.635Z,974.68
2022-08-16T12:28:56.592Z,974.44
2022-08-16T12:33:58.397Z,974.36
2022-08-16T12:39:30.536Z,974.03
2022-08-16T12:45:00.554Z,973.54
2022-08-16T12:50:34.193Z,974.02
2022-08-16T12:56:05.102Z,973.64
2022-08-16T13:01:35.758Z,973.62
2022-08-16T13:07:09.402Z,973.19
2022-08-16T13:12:49.737Z,972.34
2022-08-16T13:18:35.484Z,972.16
2022-08-16T13:23:47.050Z,973.04
2022-08-16T13:29:18.909Z,973.29
2022-08-16T13:34:51.037Z,973.47
2022-08-16T13:40:23.872Z,973.46
2022-08-16T13:45:56.093Z,974.08
2022-08-16T13:51:31.137Z,973.65
2022-08-16T13:56:57.405Z,973.34
2022-08-16T14:02:29.159Z,973.4
2022-08-16T14:08:03.693Z,972.75
2022-08-16T14:13:36.938Z,973.25
2022-08-16T14:19:08.705Z,972.9
2022-08-16T14:24:40.569Z,972.95
2022-08-16T14:30:16.161Z,972.46
2022-08-16T14:35:51.281Z,972.55
2022-08-16T14:41:15.577Z,972.76
2022-08-16T14:46:47.269Z,972.5
2022-08-16T14:52:57.336Z,972.71
2022-08-16T14:57:55.297Z,972.8
2022-08-16T15:03:23.180Z,972.16
2022-08-16T15:08:55.014Z,971.71
2022-08-16T15:14:30.266Z,972.19
2022-08-16T15:20:02.002Z,971.73
2022-08-16T15:25:33.738Z,972.4
2022-08-16T15:31:07.032Z,972.71
2022-08-16T15:36:38.385Z,972.08
2022-08-16T15:42:29.105Z,971.48
2022-08-16T15:47:40.809Z,972.27
2022-08-16T15:53:13.323Z,972.38
2022-08-16T15:58:44.105Z,971.86
2022-08-16T16:04:25.963Z,971.46
2022-08-16T16:09:53.669Z,971.83
2022-08-16T16:15:25.034Z,971.49
2022-08-16T16:20:55.430Z,971.63
2022-08-16T16:26:27.509Z,972.21
2022-08-16T16:32:00.541Z,971.77
2022-08-16T16:37:30.466Z,971.04
2022-08-16T16:43:03.457Z,971.29
2022-08-16T16:48:35.930Z,971.97
2022-08-16T16:54:05.693Z,971.58
2022-08-16T16:59:37.405Z,971.09
2022-08-16T17:05:09.313Z,971.52
2022-08-16T17:10:50.471Z,971.5
2022-08-16T17:16:20.417Z,971.45
2022-08-16T17:21:49.518Z,970.51
2022-08-16T17:27:34.681Z,970.64
2022-08-16T17:32:55.425Z,971.26
2022-08-16T17:38:46.358Z,971.24
2022-08-16T17:43:55.558Z,971.08
2022-08-16T17:49:27.280Z,970.83
2022-08-16T17:54:59.018Z,970.81
2022-08-16T18:00:30.816Z,970.72
2022-08-16T18:06:02.391Z,970.5
2022-08-16T18:11:34.470Z,970.31
2022-08-16T18:17:10.269Z,970.1
2022-08-16T18:22:42.105Z,969.92
2022-08-16T18:28:13.756Z,969.77
2022-08-16T18:33:45.370Z,969.74
2022-08-16T18:39:17.419Z,969.54
2022-08-16T18:44:48.809Z,969.4
2022-08-16T18:50:20.638Z,969.37
2022-08-16T18:55:52.527Z,969.34
2022-08-16T19:01:24.143Z,969.57
2022-08-16T19:06:55.822Z,969.63
2022-08-16T19:12:42.830Z,969.4
2022-08-16T19:18:03.570Z,969.67
2022-08-16T19:23:38.646Z,969.72
2022-08-16T19:29:09.982Z,969.76
2022-08-16T19:34:38.770Z,969.89
2022-08-16T19:40:39.155Z,970.06
2022-08-16T19:45:46.890Z,970.07
2022-08-16T19:51:13.914Z,969.67
2022-08-16T19:56:45.617Z,969.69
2022-08-16T20:02:37.136Z,969.93
2022-08-16T20:08:04.439Z,969.99
2022-08-16T20:13:20.823Z,970.06
2022-08-16T20:18:56.961Z,969.87
2022-08-16T20:24:36.725Z,969.99
2022-08-16T20:30:05.639Z,970.22
2022-08-16T20:35:32.181Z,969.83
2022-08-16T20:41:04.219Z,970.22
2022-08-16T20:46:40.674Z,970.3
2022-08-16T20:52:07.780Z,970.6
2022-08-16T20:57:39.383Z,970.68
2022-08-16T21:03:11.078Z,970.69
2022-08-16T21:08:54.521Z,970.5
2022-08-16T21:14:14.691Z,970.57
2022-08-16T21:19:50.563Z,970.61
2022-08-16T21:25:24.012Z,970.69
2022-08-16T21:30:54.178Z,970.77
2022-08-16T21:36:37.119Z,970.71
2022-08-16T21:41:58.515Z,970.67
2022-08-16T21:47:30.179Z,970.71
2022-08-16T21:53:01.951Z,970.68
2022-08-16T21:58:33.637Z,970.66
2022-08-16T22:04:39.566Z,970.54
2022-08-16T22:09:37.247Z,970.46
2022-08-16T22:15:10.235Z,970.57
2022-08-16T22:20:45.037Z,970.55
2022-08-16T22:26:16.756Z,970.49
2022-08-16T22:31:48.580Z,970.49
2022-08-16T22:37:20.194Z,970.54
2022-08-16T22:42:52.217Z,970.63
2022-08-16T22:48:23.908Z,970.7
2022-08-16T22:53:55.393Z,970.7
2022-08-16T22:59:27.077Z,970.7
2022-08-16T23:04:58.841Z,970.7
2022-08-16T23:10:30.652Z,970.82
2022-08-16T23:16:11.776Z,970.9
2022-08-16T23:21:38.539Z,970.96
2022-08-16T23:27:10.403Z,971.04
2022-08-16T23:32:42.035Z,970.94
2022-08-16T23:38:40.005Z,970.88
2022-08-16T23:43:45.218Z,970.97
2022-08-16T23:50:04.477Z,970.86
2022-08-16T23:54:48.755Z,971.05
